Ocean King D — V7TV6 — position and weather

sailwx.info

Track history (hours):
 
Tides and Currents Weather Stations Pressure Air Temp Water Temp Dewpoint Dewpoint Depression Visibility Wind Speed Wind Dir Waves Ship Positions

Ocean King D

Last reported at 2014-Aug-27 18:32 UTC. Time now 2014-Sep-01 14:09 UTC.
Position N 32°53' E 035°00'.

Length 190 m; draft 10 m.

Type: Cargo ship. MMSI: 538003892.

Date/timePositionNaut miles runAvg speedWind from/ knotsBaromVisibWave heightAir tempDewpointWater temp
2014-Aug-27 18:32N 32°53' E 035°00'0 0.0
2014-Aug-27 17:08N 32°53' E 035°00'0 0.0
2014-Aug-27 16:20N 32°53' E 035°00'97 5.5
2014-Aug-26 22:33N 33°14' E 033°07'2613.0
2014-Aug-26 20:33N 33°20' E 032°37'1313.1
2014-Aug-26 19:33N 33°23' E 032°21'1312.9
2014-Aug-26 18:33N 33°26' E 032°06'4012.4
2014-Aug-26 15:19N 33°36' E 031°20'1212.6
2014-Aug-26 14:24N 33°38' E 031°06'1112.8
2014-Aug-26 13:33N 33°40' E 030°53'6 4.1
2014-Aug-26 12:08N 33°42' E 030°47'2 3.5
2014-Aug-26 11:30N 33°42' E 030°44'1512.7
2014-Aug-26 10:18N 33°46' E 030°26'2313.0
2014-Aug-26 08:33N 33°51' E 029°60'7712.7
2014-Aug-26 02:31N 34°08' E 028°29'1313.3
2014-Aug-26 01:33N 34°12' E 028°15'26912.5
2014-Aug-25 04:07N 35°09' E 022°56'712.0
2014-Aug-25 03:32N 35°11' E 022°47'38412.7
2014-Aug-23 21:11N 36°21' E 015°02'813.0
2014-Aug-23 20:33N 36°23' E 014°52'1313.1
2014-Aug-23 19:33N 36°25' E 014°36'21612.6
2014-Aug-23 02:24N 37°33' E 010°19'1612.5
2014-Aug-23 01:07N 37°34' E 009°58'712.7
2014-Aug-23 00:33N 37°32' E 009°50'1412.6
2014-Aug-22 23:27N 37°28' E 009°33'1112.4
2014-Aug-22 22:33N 37°25' E 009°20'1212.4
2014-Aug-22 21:33N 37°21' E 009°05'1212.3
2014-Aug-22 20:33N 37°18' E 008°50'1212.2
2014-Aug-22 19:32N 37°18' E 008°34'1212.4
2014-Aug-22 18:33N 37°18' E 008°19'1312.5
2014-Aug-22 17:33N 37°18' E 008°03'1712.3
2014-Aug-22 16:09N 37°19' E 007°42'13813.0
2014-Aug-22 05:33N 37°12' E 004°48'1313.1
2014-Aug-22 04:34N 37°11' E 004°32'1212.4
2014-Aug-22 03:33N 37°10' E 004°17'1312.5
2014-Aug-22 02:33N 37°08' E 004°01'3912.8
2014-Aug-21 23:31N 37°01' E 003°13'1412.6
2014-Aug-21 22:23N 36°59' E 002°55'1011.7
2014-Aug-21 21:33N 36°58' E 002°44'1111.3
2014-Aug-21 20:33N 36°56' E 002°30'1312.7
2014-Aug-21 19:33N 36°54' E 002°14'1513.1
2014-Aug-21 18:23N 36°52' E 001°55'8013.0
2014-Aug-21 12:15N 36°38' E 000°17'5013.3
2014-Aug-21 08:29N 36°31' W 000°45'1312.4
2014-Aug-21 07:26N 36°28' W 001°01'215 9.0
2014-Aug-20 07:26N 35°59' W 005°25'12712.5
2014-Aug-19 21:14N 34°40' W 007°27'912.5
2014-Aug-19 20:33N 34°34' W 007°35'3012.5
2014-Aug-19 18:06N 34°12' W 008°01'1912.3
2014-Aug-19 16:33N 33°59' W 008°18'3011.9
2014-Aug-19 14:04N 33°38' W 008°43'  
Track history (hours):
 
Tides and Currents Weather Stations Pressure Air Temp Water Temp Dewpoint Dewpoint Depression Visibility Wind Speed Wind Dir Waves Ship Positions

Ocean King D

Last reported at 2014-Aug-27 18:32 UTC. Time now 2014-Sep-01 14:09 UTC.
Position N 32°53' E 035°00'.

Length 190 m; draft 10 m.

Type: Cargo ship. MMSI: 538003892.

Date/timePositionNaut miles runAvg speedWind from/ knotsBaromVisibWave heightAir tempDewpointWater temp
2014-Aug-27 18:32N 32°53' E 035°00'0 0.0
2014-Aug-27 17:08N 32°53' E 035°00'0 0.0
2014-Aug-27 16:20N 32°53' E 035°00'97 5.5
2014-Aug-26 22:33N 33°14' E 033°07'2613.0
2014-Aug-26 20:33N 33°20' E 032°37'1313.1
2014-Aug-26 19:33N 33°23' E 032°21'1312.9
2014-Aug-26 18:33N 33°26' E 032°06'4012.4
2014-Aug-26 15:19N 33°36' E 031°20'1212.6
2014-Aug-26 14:24N 33°38' E 031°06'1112.8
2014-Aug-26 13:33N 33°40' E 030°53'6 4.1
2014-Aug-26 12:08N 33°42' E 030°47'2 3.5
2014-Aug-26 11:30N 33°42' E 030°44'1512.7
2014-Aug-26 10:18N 33°46' E 030°26'2313.0
2014-Aug-26 08:33N 33°51' E 029°60'7712.7
2014-Aug-26 02:31N 34°08' E 028°29'1313.3
2014-Aug-26 01:33N 34°12' E 028°15'26912.5
2014-Aug-25 04:07N 35°09' E 022°56'712.0
2014-Aug-25 03:32N 35°11' E 022°47'38412.7
2014-Aug-23 21:11N 36°21' E 015°02'813.0
2014-Aug-23 20:33N 36°23' E 014°52'1313.1
2014-Aug-23 19:33N 36°25' E 014°36'21612.6
2014-Aug-23 02:24N 37°33' E 010°19'1612.5
2014-Aug-23 01:07N 37°34' E 009°58'712.7
2014-Aug-23 00:33N 37°32' E 009°50'1412.6
2014-Aug-22 23:27N 37°28' E 009°33'1112.4
2014-Aug-22 22:33N 37°25' E 009°20'1212.4
2014-Aug-22 21:33N 37°21' E 009°05'1212.3
2014-Aug-22 20:33N 37°18' E 008°50'1212.2
2014-Aug-22 19:32N 37°18' E 008°34'1212.4
2014-Aug-22 18:33N 37°18' E 008°19'1312.5
2014-Aug-22 17:33N 37°18' E 008°03'1712.3
2014-Aug-22 16:09N 37°19' E 007°42'13813.0
2014-Aug-22 05:33N 37°12' E 004°48'1313.1
2014-Aug-22 04:34N 37°11' E 004°32'1212.4
2014-Aug-22 03:33N 37°10' E 004°17'1312.5
2014-Aug-22 02:33N 37°08' E 004°01'3912.8
2014-Aug-21 23:31N 37°01' E 003°13'1412.6
2014-Aug-21 22:23N 36°59' E 002°55'1011.7
2014-Aug-21 21:33N 36°58' E 002°44'1111.3
2014-Aug-21 20:33N 36°56' E 002°30'1312.7
2014-Aug-21 19:33N 36°54' E 002°14'1513.1
2014-Aug-21 18:23N 36°52' E 001°55'8013.0
2014-Aug-21 12:15N 36°38' E 000°17'5013.3
2014-Aug-21 08:29N 36°31' W 000°45'1312.4
2014-Aug-21 07:26N 36°28' W 001°01'215 9.0
2014-Aug-20 07:26N 35°59' W 005°25'12712.5
2014-Aug-19 21:14N 34°40' W 007°27'912.5
2014-Aug-19 20:33N 34°34' W 007°35'3012.5
2014-Aug-19 18:06N 34°12' W 008°01'1912.3
2014-Aug-19 16:33N 33°59' W 008°18'3011.9
2014-Aug-19 14:04N 33°38' W 008°43'  

Dump ship's entire track history